createdAt,value
2023-08-02T00:03:31.039Z,19.30
2023-08-02T00:08:34.778Z,19.30
2023-08-02T00:13:39.423Z,19.40
2023-08-02T00:18:42.609Z,19.30
2023-08-02T00:23:45.810Z,19.30
2023-08-02T00:28:50.394Z,19.40
2023-08-02T00:33:53.810Z,19.30
2023-08-02T00:38:57.070Z,19.30
2023-08-02T00:44:01.674Z,19.40
2023-08-02T00:49:04.937Z,19.40
2023-08-02T00:54:08.576Z,19.50
2023-08-02T00:59:13.214Z,19.50
2023-08-02T01:04:16.637Z,19.50
2023-08-02T01:09:26.409Z,19.60
2023-08-02T01:14:36.937Z,19.50
2023-08-02T01:19:46.577Z,19.50
2023-08-02T01:24:51.282Z,19.60
2023-08-02T01:29:54.758Z,19.70
2023-08-02T01:34:58.053Z,19.70
2023-08-02T01:40:02.645Z,19.60
2023-08-02T01:45:06.643Z,19.60
2023-08-02T01:50:10.159Z,19.60
2023-08-02T01:55:14.782Z,19.60
2023-08-02T02:00:18.050Z,19.50
2023-08-02T02:05:21.266Z,19.60
2023-08-02T02:10:25.820Z,19.60
2023-08-02T02:15:29.201Z,19.60
2023-08-02T02:20:32.388Z,19.60
2023-08-02T02:25:36.960Z,19.70
2023-08-02T02:30:40.335Z,19.70
2023-08-02T02:35:43.519Z,19.70
2023-08-02T02:40:48.077Z,19.70
2023-08-02T02:45:51.352Z,19.70
2023-08-02T02:50:54.555Z,19.70
2023-08-02T02:55:59.154Z,19.60
2023-08-02T03:01:02.446Z,19.50
2023-08-02T03:06:05.823Z,19.40
2023-08-02T03:11:10.499Z,19.50
2023-08-02T03:16:13.829Z,19.60
2023-08-02T03:21:17.222Z,19.60
2023-08-02T03:26:21.791Z,19.60
2023-08-02T03:31:25.278Z,19.70
2023-08-02T03:36:28.457Z,19.70
2023-08-02T03:41:33.001Z,19.80
2023-08-02T03:46:36.231Z,19.90
2023-08-02T03:51:39.616Z,19.90
2023-08-02T03:56:44.603Z,19.90
2023-08-02T04:01:48.203Z,19.90
2023-08-02T04:06:51.465Z,19.90
2023-08-02T04:11:56.072Z,19.90
2023-08-02T04:16:59.249Z,19.90
2023-08-02T04:22:02.436Z,19.90
2023-08-02T04:27:07.224Z,19.80
2023-08-02T04:32:10.661Z,19.80
2023-08-02T04:37:14.088Z,20.00
2023-08-02T04:42:19.629Z,20.00
2023-08-02T04:47:22.805Z,20.00
2023-08-02T04:52:26.117Z,20.10
2023-08-02T04:57:30.783Z,20.10
2023-08-02T05:02:37.496Z,20.10
2023-08-02T05:07:41.594Z,20.20
2023-08-02T05:12:46.370Z,20.10
2023-08-02T05:17:49.756Z,20.20
2023-08-02T05:22:53.035Z,20.20
2023-08-02T05:27:57.646Z,20.30
2023-08-02T05:33:01.028Z,20.40
2023-08-02T05:38:05.470Z,20.40
2023-08-02T05:43:10.108Z,20.50
2023-08-02T05:48:13.292Z,20.60
2023-08-02T05:53:16.509Z,20.70
2023-08-02T05:58:21.142Z,21.10
2023-08-02T06:03:24.693Z,21.40
2023-08-02T06:08:27.962Z,21.60
2023-08-02T06:13:32.771Z,21.70
2023-08-02T06:18:36.131Z,23.10
2023-08-02T06:23:39.355Z,23.90
2023-08-02T06:28:44.075Z,24.00
2023-08-02T06:33:47.371Z,23.60
2023-08-02T06:38:50.607Z,23.40
2023-08-02T06:43:55.254Z,23.40
2023-08-02T06:48:58.632Z,23.50
2023-08-02T06:54:01.914Z,23.40
2023-08-02T06:59:06.575Z,23.50
2023-08-02T07:04:09.852Z,23.60
2023-08-02T07:09:13.217Z,23.40
2023-08-02T07:14:17.927Z,23.70
2023-08-02T07:19:21.086Z,23.90
2023-08-02T07:24:24.366Z,24.10
2023-08-02T07:29:28.926Z,24.20
2023-08-02T07:34:32.181Z,24.00
2023-08-02T07:39:35.449Z,24.00
2023-08-02T07:44:41.324Z,24.30
2023-08-02T07:49:44.568Z,24.70
2023-08-02T07:54:56.358Z,25.10
2023-08-02T08:00:01.748Z,25.00
2023-08-02T08:05:05.530Z,24.80
2023-08-02T08:10:09.167Z,24.60
2023-08-02T08:15:13.779Z,24.40
2023-08-02T08:20:17.099Z,24.70
2023-08-02T08:25:22.193Z,24.80
2023-08-02T08:30:26.964Z,24.90
2023-08-02T08:35:30.230Z,25.10
2023-08-02T08:40:33.867Z,25.60
2023-08-02T08:45:38.726Z,25.70
2023-08-02T08:50:43.864Z,25.70
2023-08-02T08:55:51.184Z,25.80
2023-08-02T09:00:56.391Z,25.80
2023-08-02T09:06:01.092Z,25.90
2023-08-02T09:11:04.447Z,26.20
2023-08-02T09:16:10.659Z,26.10
2023-08-02T09:21:15.764Z,25.70
2023-08-02T09:26:20.071Z,25.70
2023-08-02T09:31:24.797Z,25.70
2023-08-02T09:36:30.292Z,25.70
2023-08-02T09:46:41.395Z,25.70
2023-08-02T09:51:46.040Z,25.80
2023-08-02T09:56:49.492Z,26.00
2023-08-02T10:01:54.319Z,25.90
2023-08-02T10:07:00.396Z,26.00
2023-08-02T10:12:09.566Z,25.90
2023-08-02T10:17:14.747Z,26.10
2023-08-02T10:22:18.286Z,26.20
2023-08-02T10:27:22.232Z,26.00
2023-08-02T10:32:27.322Z,26.10
2023-08-02T10:37:55.323Z,26.40
2023-08-02T10:43:06.408Z,26.60
2023-08-02T10:48:28.494Z,26.70
2023-08-02T10:53:31.797Z,26.70
2023-08-02T10:58:52.961Z,26.90
2023-08-02T11:03:58.806Z,26.90
2023-08-02T11:09:02.095Z,27.20
2023-08-02T11:14:05.389Z,27.30
2023-08-02T11:19:11.933Z,27.30
2023-08-02T11:24:15.346Z,27.50
2023-08-02T11:29:18.945Z,27.70
2023-08-02T11:34:26.200Z,27.80
2023-08-02T11:39:29.472Z,27.90
2023-08-02T11:44:33.713Z,28.30
2023-08-02T11:49:51.335Z,28.30
2023-08-02T11:54:55.162Z,28.20
2023-08-02T12:00:00.941Z,28.20
2023-08-02T12:05:09.773Z,28.10
2023-08-02T12:10:13.072Z,28.40
2023-08-02T12:15:17.337Z,28.50
2023-08-02T12:20:32.716Z,28.70
2023-08-02T12:25:48.048Z,28.70
2023-08-02T12:31:05.037Z,29.00
2023-08-02T12:36:10.290Z,28.90
2023-08-02T12:41:13.472Z,28.70
2023-08-02T12:46:18.249Z,28.60
2023-08-02T12:51:22.860Z,28.90
2023-08-02T12:56:26.142Z,29.30
2023-08-02T13:01:29.484Z,29.30
2023-08-02T13:06:36.158Z,29.60
2023-08-02T13:11:39.666Z,29.50
2023-08-02T13:16:43.149Z,29.80
2023-08-02T13:21:48.013Z,29.80
2023-08-02T13:26:51.169Z,29.80
2023-08-02T13:31:54.492Z,30.40
2023-08-02T13:36:59.087Z,29.80
2023-08-02T13:42:02.384Z,30.10
2023-08-02T13:47:06.258Z,30.00
2023-08-02T13:52:10.831Z,30.10
2023-08-02T13:57:14.138Z,29.80
2023-08-02T14:02:17.323Z,29.70
2023-08-02T14:07:21.971Z,29.60
2023-08-02T14:12:25.351Z,30.10
2023-08-02T14:17:28.530Z,30.70
2023-08-02T14:22:34.907Z,30.70
2023-08-02T14:27:38.172Z,30.20
2023-08-02T14:32:41.423Z,29.90
2023-08-02T14:37:46.750Z,29.70
2023-08-02T14:42:50.213Z,29.80
2023-08-02T14:47:53.637Z,29.80
2023-08-02T14:52:58.192Z,29.60
2023-08-02T14:58:01.387Z,29.30
2023-08-02T15:03:05.100Z,29.10
2023-08-02T15:08:09.766Z,29.20
2023-08-02T15:13:13.004Z,28.90
2023-08-02T15:18:16.322Z,28.70
2023-08-02T15:23:20.960Z,28.60
2023-08-02T15:28:24.162Z,28.50
2023-08-02T15:33:27.412Z,28.50
2023-08-02T15:38:31.987Z,28.30
2023-08-02T15:43:35.391Z,27.80
2023-08-02T15:48:42.592Z,27.30
2023-08-02T15:53:47.744Z,26.90
2023-08-02T15:58:51.150Z,26.20
2023-08-02T16:03:54.461Z,25.80
2023-08-02T16:08:59.156Z,25.70
2023-08-02T16:14:02.362Z,25.40
2023-08-02T16:19:05.617Z,25.20
2023-08-02T16:24:10.264Z,25.10
2023-08-02T16:29:13.568Z,25.20
2023-08-02T16:34:17.183Z,25.40
2023-08-02T16:39:21.821Z,25.70
2023-08-02T16:44:25.215Z,25.80
2023-08-02T16:49:30.699Z,25.90
2023-08-02T16:54:35.327Z,25.80
2023-08-02T16:59:38.515Z,25.80
2023-08-02T17:04:41.824Z,25.80
2023-08-02T17:09:46.418Z,25.60
2023-08-02T17:14:49.591Z,25.30
2023-08-02T17:19:52.834Z,25.30
2023-08-02T17:25:12.242Z,25.20
2023-08-02T17:30:20.508Z,25.10
2023-08-02T17:35:23.895Z,24.70
2023-08-02T17:40:28.665Z,24.80
2023-08-02T17:45:37.900Z,24.60
2023-08-02T17:50:41.460Z,24.30
2023-08-02T17:55:46.146Z,24.20
2023-08-02T18:00:49.428Z,24.20
2023-08-02T18:05:53.641Z,24.20
2023-08-02T18:11:00.549Z,24.20
2023-08-02T18:16:04.274Z,24.00
2023-08-02T18:21:07.845Z,23.70
2023-08-02T18:26:17.646Z,23.40
2023-08-02T18:31:21.317Z,23.00
2023-08-02T18:36:25.843Z,22.60
2023-08-02T18:41:32.446Z,22.60
2023-08-02T18:46:38.381Z,22.40
2023-08-02T18:51:41.804Z,22.10
2023-08-02T18:56:46.580Z,21.90
2023-08-02T19:01:49.975Z,22.00
2023-08-02T19:06:53.185Z,22.20
2023-08-02T19:11:57.877Z,22.10
2023-08-02T19:17:01.297Z,21.70
2023-08-02T19:22:10.804Z,21.20
2023-08-02T19:27:15.482Z,20.90
2023-08-02T19:32:22.470Z,20.70
2023-08-02T19:37:29.951Z,20.60
2023-08-02T19:42:39.185Z,20.50
2023-08-02T19:47:42.497Z,20.60
2023-08-02T19:52:45.697Z,20.50
2023-08-02T19:57:52.283Z,20.30
2023-08-02T20:02:55.564Z,20.20
2023-08-02T20:07:58.773Z,20.30
2023-08-02T20:13:08.087Z,20.40
2023-08-02T20:18:11.611Z,20.50
2023-08-02T20:23:14.973Z,20.60
2023-08-02T20:28:20.050Z,20.40
2023-08-02T20:33:26.972Z,20.30
2023-08-02T20:38:33.848Z,20.30
2023-08-02T20:43:39.326Z,20.30
2023-08-02T20:48:43.587Z,20.40
2023-08-02T20:53:52.325Z,20.50
2023-08-02T20:58:57.090Z,20.60
2023-08-02T21:04:03.159Z,20.80
2023-08-02T21:09:06.474Z,20.70
2023-08-02T21:14:11.108Z,20.60
2023-08-02T21:19:14.429Z,20.60
2023-08-02T21:24:19.727Z,20.50
2023-08-02T21:29:24.357Z,20.50
2023-08-02T21:34:27.622Z,20.40
2023-08-02T21:39:30.881Z,20.50
2023-08-02T21:44:35.470Z,20.40
2023-08-02T21:49:38.637Z,20.30
2023-08-02T21:54:41.968Z,20.20
2023-08-02T21:59:46.495Z,20.20
2023-08-02T22:04:49.965Z,20.10
2023-08-02T22:09:55.382Z,20.10
2023-08-02T22:15:03.605Z,20.00
2023-08-02T22:20:08.105Z,20.00
2023-08-02T22:25:11.344Z,20.00
2023-08-02T22:30:16.103Z,20.00
2023-08-02T22:35:19.658Z,19.90
2023-08-02T22:40:23.227Z,19.90
2023-08-02T22:45:28.459Z,19.70
2023-08-02T22:50:54.538Z,20.00
2023-08-02T22:55:54.875Z,20.20
2023-08-02T23:00:59.487Z,20.20
2023-08-02T23:06:02.746Z,20.10
2023-08-02T23:11:06.360Z,20.10
2023-08-02T23:16:12.812Z,20.00
2023-08-02T23:21:16.313Z,20.00
2023-08-02T23:26:24.655Z,19.90
2023-08-02T23:31:29.754Z,19.90
2023-08-02T23:36:33.142Z,19.80
2023-08-02T23:41:36.428Z,19.90
2023-08-02T23:46:41.082Z,19.80
2023-08-02T23:51:44.505Z,19.80
2023-08-02T23:56:47.794Z,19.80
